Terminal Aerodrome Forecast
Issued by NWS

Home | Current Version | Previous Version | Text Only | Print | Product List | Glossary On
Versions: 1 2 3 4 5 6 7 8 9 10 11 12 13 14 15 16
000
FTUS44 KLZK 032200 AAA
TAFPBF
TAF AMD
KPBF 032206Z 0322/0418 21007KT P6SM VCSH SCT008 BKN050
     FM040000 17003KT P6SM BKN050
     FM040800 VRB03KT P6SM VCSH SCT035 OVC050
      TEMPO 0411/0415 5SM -TSRA BR BKN015CB
     FM041600 11007KT P6SM BKN035=

USA.gov is the U.S. government's official web portal to all federal, state and local government web resources and services.